Aérodrome :
LOGIN :

S'inscrire | Disclaimer

   EN    FR    IT 

 










Légende :    VFR   VFR Marginal   IFR   IFR Intensif   IFR Très Intensif
Visi : 
Plafond : 
>= 8 km
>= 3000ft
5 à 8 km
1000 à 3000 ft
1500m à 5 km
500 à 1000 ft
800 à 1500m
200 à 500 ft
< 800m
< 200 ft
Symboles :   Orages  Brouillard  Fortes neiges  Fortes précipitations  Vent > 20 kt
SIGMETs :   Divers  Orages  Givrage  Turbulence  Onde Orograph.  Cendres Volcan.







- Altitude de l'aérodrome : 228 ft
- Code IATA : OPO


LPPR - Porto Fr. Sa Carneiro

DERNIER METAR :
  • 140800Z 26005KT 220V310 9000 FEW004 SCT010 BKN030 14/14 Q1023

METARs EXPIRÉS :
  • 140730Z 27004KT 220V330 9999 FEW003 BKN018 14/14 Q1023
  • 140700Z 29006KT 250V320 9999 SCT003 BKN015 14/14 Q1023
  • 140630Z 25007KT 210V290 4000 -RADZ BR FEW001 BKN004 15/15 Q1023
  • 140600Z 23007KT 200V260 0900 R17/1000N -DZ FG SCT001 BKN004 14/14 Q1022
  • 140530Z 23007KT 190V270 3000 -RA BR OVC002 14/14 Q1023

TAF TAF LPPR
Valide du 14 à 06h jusqu'au 15 à 06h UTC


140500Z 1406/1506 20010KT 5000 -RADZ BR BKN005
TEMPO 1406/1411 2000 DZ BR BKN001
PROB30
TEMPO 1406/1409 0300 FG VV001
BECMG 1411/1413 26010KT 9999 NSW SCT005 BKN012
TEMPO 1413/1424 3000 -RADZ BR SCT002 BKN005
Pas de NOTAMs connus pour ce terrain.



MET'MAP, la Météo Aéronautique d'un coup d'oeil ! - Copyright ORBIFLY Décembre 2007 - Disclaimer

ORBIFLY MET'MAP TEAM :

Programmation & Développement : Alexandra Zaïnal
Conception & Développement : Baudouin d'Aumeries
Co-Programmation & Développement : Marc-Olivier Méhu
Soutien technique & logistique : Manuel Goepfert

Contact : metmap@orbifly.com




SOURCES & CREDITS :

   NOAA